Tomi II — YT2177 — position and weather

sailwx.info

Track history (hours):
 
Tides and Currents Weather Stations Pressure Air Temp Water Temp Dewpoint Dewpoint Depression Visibility Wind Speed Wind Dir Waves Ship Positions

Tomi II

Last reported at 2017-Oct-17 02:57 UTC. Time now 2017-Oct-17 08:14 UTC.
Position N 44°41' E 020°57'.

Length 25 m; draft 1.1 m.

Type: Cargo ship. MMSI: 279202177.

Date/timePositionNaut miles runAvg speedWind from/ knotsBaromVisibWave heightAir tempDewpointWater temp
2017-Oct-17 02:57N 44°41' E 020°57'1 1.1
2017-Oct-17 02:28N 44°42' E 020°57'1 0.1
2017-Oct-16 21:15N 44°41' E 020°57'1 3.8
2017-Oct-16 21:01N 44°42' E 020°58'1 1.1
2017-Oct-16 20:30N 44°42' E 020°58'1 1.1
2017-Oct-16 20:01N 44°42' E 020°58'1 0.2
2017-Oct-16 16:06N 44°41' E 020°57'0 0.7
2017-Oct-16 16:01N 44°41' E 020°57'0 0.3
2017-Oct-16 15:30N 44°41' E 020°57'1 0.9
2017-Oct-16 13:52N 44°40' E 020°55'0 0.4
2017-Oct-16 13:31N 44°40' E 020°55'0 0.3
2017-Oct-16 13:01N 44°40' E 020°55'0 0.0
2017-Oct-16 12:25N 44°40' E 020°55'1 3.2
2017-Oct-16 12:01N 44°41' E 020°57'0 0.2
2017-Oct-16 11:10N 44°41' E 020°57'0 0.1
2017-Oct-16 11:01N 44°41' E 020°57'1 1.8
2017-Oct-16 10:31N 44°42' E 020°58'1 1.1
2017-Oct-16 10:00N 44°42' E 020°58'1 0.7
2017-Oct-16 09:17N 44°42' E 020°58'0 0.5
2017-Oct-16 08:59N 44°42' E 020°58'0 0.8
2017-Oct-16 08:28N 44°42' E 020°58'1 1.1
2017-Oct-16 08:00N 44°42' E 020°58'1 0.2
2017-Oct-16 04:46N 44°41' E 020°57'1 2.3
2017-Oct-16 04:30N 44°42' E 020°58'0 0.3
2017-Oct-16 04:00N 44°42' E 020°57'0 0.1
2017-Oct-16 03:31N 44°42' E 020°58'1 1.5
2017-Oct-16 02:58N 44°42' E 020°58'1 2.5
2017-Oct-16 02:30N 44°43' E 020°60'2 4.5
2017-Oct-16 02:01N 44°42' E 020°57'0 0.2
2017-Oct-15 23:20N 44°41' E 020°57'1 2.6
2017-Oct-15 22:59N 44°42' E 020°58'0 0.5
2017-Oct-15 22:30N 44°42' E 020°58'1 0.3
2017-Oct-15 19:56N 44°41' E 020°57'1 2.1
2017-Oct-15 19:31N 44°42' E 020°58'1 0.3
2017-Oct-15 16:53N 44°41' E 020°57'1 2.2
2017-Oct-15 16:31N 44°42' E 020°57'1 0.2
2017-Oct-15 12:31N 44°41' E 020°57'0 0.0
2017-Oct-15 12:31N 44°41' E 020°57'0 0.6
2017-Oct-15 12:00N 44°41' E 020°57'1 1.1
2017-Oct-15 11:31N 44°42' E 020°57'1 0.2
2017-Oct-15 07:40N 44°41' E 020°57'0 3.1
2017-Oct-15 07:31N 44°42' E 020°57'0 1.0
2017-Oct-15 07:01N 44°42' E 020°58'1 0.1
2017-Oct-14 22:02N 44°41' E 020°57'0 5.1
2017-Oct-14 21:59N 44°41' E 020°57'1 0.9
2017-Oct-14 21:16N 44°42' E 020°58'1 0.4
2017-Oct-14 18:22N 44°41' E 020°57'0 0.3
2017-Oct-14 18:01N 44°41' E 020°57'0 0.1
2017-Oct-14 16:29N 44°41' E 020°57'1 1.5
2017-Oct-14 15:45N 44°42' E 020°58'0 0.8
2017-Oct-14 15:31N 44°42' E 020°58'1 2.2
2017-Oct-14 15:01N 44°41' E 020°57'0 0.2
2017-Oct-14 13:59N 44°41' E 020°57'0 0.2
2017-Oct-14 13:31N 44°41' E 020°57'0 0.1
2017-Oct-14 13:00N 44°41' E 020°57'0 0.2
2017-Oct-14 12:31N 44°41' E 020°57'1 1.1
2017-Oct-14 12:01N 44°42' E 020°57'0 0.2
2017-Oct-14 11:31N 44°42' E 020°58'0 0.1
2017-Oct-14 11:01N 44°42' E 020°57'0 0.7
2017-Oct-14 10:30N 44°42' E 020°58'0 0.3
2017-Oct-14 10:01N 44°42' E 020°58'1 1.5
2017-Oct-14 09:30N 44°41' E 020°57'0 0.0
2017-Oct-14 07:58N 44°41' E 020°57'0 0.2
2017-Oct-14 07:29N 44°41' E 020°57'0 0.0
2017-Oct-13 13:28N 44°41' E 020°57'0 0.0
2017-Oct-13 11:06N 44°41' E 020°57'0 2.6
2017-Oct-13 11:00N 44°41' E 020°57'1 1.3
2017-Oct-13 10:30N 44°42' E 020°58'1 0.1
2017-Oct-13 03:30N 44°41' E 020°57'1 1.5
2017-Oct-13 02:49N 44°42' E 020°58'1 0.1
2017-Oct-12 08:55N 44°41' E 020°57'1 1.7
2017-Oct-12 08:25N 44°42' E 020°58'1 0.5
2017-Oct-12 06:27N 44°41' E 020°57'1 1.4
2017-Oct-12 05:54N 44°41' E 020°56'2 4.8
2017-Oct-12 05:30N 44°40' E 020°54'0 0.4
2017-Oct-12 04:59N 44°40' E 020°54'2 0.1
2017-Oct-10 20:02N 44°41' E 020°57'0 0.0
2017-Oct-10 20:01N 44°41' E 020°57'1 2.9
2017-Oct-10 19:30N 44°40' E 020°55'0 0.2
2017-Oct-10 19:00N 44°40' E 020°55'1 0.4
2017-Oct-10 15:50N 44°41' E 020°57'1 2.8
2017-Oct-10 15:31N 44°42' E 020°58'0 0.4
2017-Oct-10 15:01N 44°42' E 020°58'1 0.2
2017-Oct-10 09:49N 44°41' E 020°57'1 2.0
2017-Oct-10 09:30N 44°42' E 020°58'0 0.1
2017-Oct-10 08:59N 44°42' E 020°58'1 0.2
2017-Oct-10 05:46N 44°41' E 020°57'1 2.9
2017-Oct-10 05:30N 44°42' E 020°58'0 0.6
2017-Oct-10 05:00N 44°42' E 020°57'1 0.2
2017-Oct-10 01:31N 44°41' E 020°57'0 3.7
2017-Oct-10 01:29N 44°41' E 020°57'1 2.3
2017-Oct-10 01:00N 44°42' E 020°58'1 0.3
2017-Oct-09 20:18N 44°41' E 020°57'1 2.9
2017-Oct-09 20:01N 44°42' E 020°58'0 0.4
2017-Oct-09 19:31N 44°42' E 020°57'1 0.3
2017-Oct-09 16:29N 44°41' E 020°57'0 0.3
2017-Oct-09 16:01N 44°41' E 020°57'0 0.0
2017-Oct-09 06:25N 44°41' E 020°57'1 2.1
2017-Oct-09 06:00N 44°42' E 020°58'0 0.6
2017-Oct-09 05:29N 44°42' E 020°58'1 0.1
2017-Oct-08 11:40N 44°41' E 020°57'0 0.3
2017-Oct-08 11:03N 44°41' E 020°57'0 1.0
2017-Oct-08 11:00N 44°41' E 020°57'0 0.0
2017-Oct-07 20:07N 44°41' E 020°57'1 5.1
2017-Oct-07 20:01N 44°42' E 020°57'0 0.7
2017-Oct-07 19:30N 44°42' E 020°57'0 0.1
2017-Oct-07 15:31N 44°41' E 020°57'0 0.4
2017-Oct-07 15:30N 44°41' E 020°57'0 0.0
2017-Oct-07 14:49N 44°41' E 020°57'1 2.9
2017-Oct-07 14:31N 44°42' E 020°58'0 0.0
2017-Oct-07 14:01N 44°42' E 020°58'0 0.4
2017-Oct-07 13:31N 44°42' E 020°57'1 0.1
2017-Oct-07 07:41N 44°41' E 020°57'1 4.7
2017-Oct-07 07:31N 44°42' E 020°58'0 0.9
2017-Oct-07 07:00N 44°42' E 020°57'  
Track history (hours):
 
Tides and Currents Weather Stations Pressure Air Temp Water Temp Dewpoint Dewpoint Depression Visibility Wind Speed Wind Dir Waves Ship Positions

Tomi II

Last reported at 2017-Oct-17 02:57 UTC. Time now 2017-Oct-17 08:14 UTC.
Position N 44°41' E 020°57'.

Length 25 m; draft 1.1 m.

Type: Cargo ship. MMSI: 279202177.

Date/timePositionNaut miles runAvg speedWind from/ knotsBaromVisibWave heightAir tempDewpointWater temp
2017-Oct-17 02:57N 44°41' E 020°57'1 1.1
2017-Oct-17 02:28N 44°42' E 020°57'1 0.1
2017-Oct-16 21:15N 44°41' E 020°57'1 3.8
2017-Oct-16 21:01N 44°42' E 020°58'1 1.1
2017-Oct-16 20:30N 44°42' E 020°58'1 1.1
2017-Oct-16 20:01N 44°42' E 020°58'1 0.2
2017-Oct-16 16:06N 44°41' E 020°57'0 0.7
2017-Oct-16 16:01N 44°41' E 020°57'0 0.3
2017-Oct-16 15:30N 44°41' E 020°57'1 0.9
2017-Oct-16 13:52N 44°40' E 020°55'0 0.4
2017-Oct-16 13:31N 44°40' E 020°55'0 0.3
2017-Oct-16 13:01N 44°40' E 020°55'0 0.0
2017-Oct-16 12:25N 44°40' E 020°55'1 3.2
2017-Oct-16 12:01N 44°41' E 020°57'0 0.2
2017-Oct-16 11:10N 44°41' E 020°57'0 0.1
2017-Oct-16 11:01N 44°41' E 020°57'1 1.8
2017-Oct-16 10:31N 44°42' E 020°58'1 1.1
2017-Oct-16 10:00N 44°42' E 020°58'1 0.7
2017-Oct-16 09:17N 44°42' E 020°58'0 0.5
2017-Oct-16 08:59N 44°42' E 020°58'0 0.8
2017-Oct-16 08:28N 44°42' E 020°58'1 1.1
2017-Oct-16 08:00N 44°42' E 020°58'1 0.2
2017-Oct-16 04:46N 44°41' E 020°57'1 2.3
2017-Oct-16 04:30N 44°42' E 020°58'0 0.3
2017-Oct-16 04:00N 44°42' E 020°57'0 0.1
2017-Oct-16 03:31N 44°42' E 020°58'1 1.5
2017-Oct-16 02:58N 44°42' E 020°58'1 2.5
2017-Oct-16 02:30N 44°43' E 020°60'2 4.5
2017-Oct-16 02:01N 44°42' E 020°57'0 0.2
2017-Oct-15 23:20N 44°41' E 020°57'1 2.6
2017-Oct-15 22:59N 44°42' E 020°58'0 0.5
2017-Oct-15 22:30N 44°42' E 020°58'1 0.3
2017-Oct-15 19:56N 44°41' E 020°57'1 2.1
2017-Oct-15 19:31N 44°42' E 020°58'1 0.3
2017-Oct-15 16:53N 44°41' E 020°57'1 2.2
2017-Oct-15 16:31N 44°42' E 020°57'1 0.2
2017-Oct-15 12:31N 44°41' E 020°57'0 0.0
2017-Oct-15 12:31N 44°41' E 020°57'0 0.6
2017-Oct-15 12:00N 44°41' E 020°57'1 1.1
2017-Oct-15 11:31N 44°42' E 020°57'1 0.2
2017-Oct-15 07:40N 44°41' E 020°57'0 3.1
2017-Oct-15 07:31N 44°42' E 020°57'0 1.0
2017-Oct-15 07:01N 44°42' E 020°58'1 0.1
2017-Oct-14 22:02N 44°41' E 020°57'0 5.1
2017-Oct-14 21:59N 44°41' E 020°57'1 0.9
2017-Oct-14 21:16N 44°42' E 020°58'1 0.4
2017-Oct-14 18:22N 44°41' E 020°57'0 0.3
2017-Oct-14 18:01N 44°41' E 020°57'0 0.1
2017-Oct-14 16:29N 44°41' E 020°57'1 1.5
2017-Oct-14 15:45N 44°42' E 020°58'0 0.8
2017-Oct-14 15:31N 44°42' E 020°58'1 2.2
2017-Oct-14 15:01N 44°41' E 020°57'0 0.2
2017-Oct-14 13:59N 44°41' E 020°57'0 0.2
2017-Oct-14 13:31N 44°41' E 020°57'0 0.1
2017-Oct-14 13:00N 44°41' E 020°57'0 0.2
2017-Oct-14 12:31N 44°41' E 020°57'1 1.1
2017-Oct-14 12:01N 44°42' E 020°57'0 0.2
2017-Oct-14 11:31N 44°42' E 020°58'0 0.1
2017-Oct-14 11:01N 44°42' E 020°57'0 0.7
2017-Oct-14 10:30N 44°42' E 020°58'0 0.3
2017-Oct-14 10:01N 44°42' E 020°58'1 1.5
2017-Oct-14 09:30N 44°41' E 020°57'0 0.0
2017-Oct-14 07:58N 44°41' E 020°57'0 0.2
2017-Oct-14 07:29N 44°41' E 020°57'0 0.0
2017-Oct-13 13:28N 44°41' E 020°57'0 0.0
2017-Oct-13 11:06N 44°41' E 020°57'0 2.6
2017-Oct-13 11:00N 44°41' E 020°57'1 1.3
2017-Oct-13 10:30N 44°42' E 020°58'1 0.1
2017-Oct-13 03:30N 44°41' E 020°57'1 1.5
2017-Oct-13 02:49N 44°42' E 020°58'1 0.1
2017-Oct-12 08:55N 44°41' E 020°57'1 1.7
2017-Oct-12 08:25N 44°42' E 020°58'1 0.5
2017-Oct-12 06:27N 44°41' E 020°57'1 1.4
2017-Oct-12 05:54N 44°41' E 020°56'2 4.8
2017-Oct-12 05:30N 44°40' E 020°54'0 0.4
2017-Oct-12 04:59N 44°40' E 020°54'2 0.1
2017-Oct-10 20:02N 44°41' E 020°57'0 0.0
2017-Oct-10 20:01N 44°41' E 020°57'1 2.9
2017-Oct-10 19:30N 44°40' E 020°55'0 0.2
2017-Oct-10 19:00N 44°40' E 020°55'1 0.4
2017-Oct-10 15:50N 44°41' E 020°57'1 2.8
2017-Oct-10 15:31N 44°42' E 020°58'0 0.4
2017-Oct-10 15:01N 44°42' E 020°58'1 0.2
2017-Oct-10 09:49N 44°41' E 020°57'1 2.0
2017-Oct-10 09:30N 44°42' E 020°58'0 0.1
2017-Oct-10 08:59N 44°42' E 020°58'1 0.2
2017-Oct-10 05:46N 44°41' E 020°57'1 2.9
2017-Oct-10 05:30N 44°42' E 020°58'0 0.6
2017-Oct-10 05:00N 44°42' E 020°57'1 0.2
2017-Oct-10 01:31N 44°41' E 020°57'0 3.7
2017-Oct-10 01:29N 44°41' E 020°57'1 2.3
2017-Oct-10 01:00N 44°42' E 020°58'1 0.3
2017-Oct-09 20:18N 44°41' E 020°57'1 2.9
2017-Oct-09 20:01N 44°42' E 020°58'0 0.4
2017-Oct-09 19:31N 44°42' E 020°57'1 0.3
2017-Oct-09 16:29N 44°41' E 020°57'0 0.3
2017-Oct-09 16:01N 44°41' E 020°57'0 0.0
2017-Oct-09 06:25N 44°41' E 020°57'1 2.1
2017-Oct-09 06:00N 44°42' E 020°58'0 0.6
2017-Oct-09 05:29N 44°42' E 020°58'1 0.1
2017-Oct-08 11:40N 44°41' E 020°57'0 0.3
2017-Oct-08 11:03N 44°41' E 020°57'0 1.0
2017-Oct-08 11:00N 44°41' E 020°57'0 0.0
2017-Oct-07 20:07N 44°41' E 020°57'1 5.1
2017-Oct-07 20:01N 44°42' E 020°57'0 0.7
2017-Oct-07 19:30N 44°42' E 020°57'0 0.1
2017-Oct-07 15:31N 44°41' E 020°57'0 0.4
2017-Oct-07 15:30N 44°41' E 020°57'0 0.0
2017-Oct-07 14:49N 44°41' E 020°57'1 2.9
2017-Oct-07 14:31N 44°42' E 020°58'0 0.0
2017-Oct-07 14:01N 44°42' E 020°58'0 0.4
2017-Oct-07 13:31N 44°42' E 020°57'1 0.1
2017-Oct-07 07:41N 44°41' E 020°57'1 4.7
2017-Oct-07 07:31N 44°42' E 020°58'0 0.9
2017-Oct-07 07:00N 44°42' E 020°57'  

Dump ship's entire track history